sensor_id;sensor_type;location;lat;lon;timestamp;temperature;humidity
5743;DHT22;2896;53.500;10.020;2023-07-08T00:01:56;15.30;99.90
5743;DHT22;2896;53.500;10.020;2023-07-08T00:04:23;15.30;99.90
5743;DHT22;2896;53.500;10.020;2023-07-08T00:06:51;15.30;99.90
5743;DHT22;2896;53.500;10.020;2023-07-08T00:09:19;15.20;99.90
5743;DHT22;2896;53.500;10.020;2023-07-08T00:11:45;15.20;99.90
5743;DHT22;2896;53.500;10.020;2023-07-08T00:14:12;15.20;99.90
5743;DHT22;2896;53.500;10.020;2023-07-08T00:16:39;15.10;99.90
5743;DHT22;2896;53.500;10.020;2023-07-08T00:19:08;15.10;99.90
5743;DHT22;2896;53.500;10.020;2023-07-08T00:21:36;15.00;1.00
5743;DHT22;2896;53.500;10.020;2023-07-08T00:24:03;15.00;1.00
5743;DHT22;2896;53.500;10.020;2023-07-08T00:26:31;15.00;1.00
5743;DHT22;2896;53.500;10.020;2023-07-08T00:28:58;15.00;1.00
5743;DHT22;2896;53.500;10.020;2023-07-08T00:31:25;15.10;1.00
5743;DHT22;2896;53.500;10.020;2023-07-08T00:33:54;15.20;99.90
5743;DHT22;2896;53.500;10.020;2023-07-08T00:36:23;15.30;99.90
5743;DHT22;2896;53.500;10.020;2023-07-08T00:38:50;15.40;99.90
5743;DHT22;2896;53.500;10.020;2023-07-08T00:41:20;15.40;99.90
5743;DHT22;2896;53.500;10.020;2023-07-08T00:43:50;15.40;99.90
5743;DHT22;2896;53.500;10.020;2023-07-08T00:46:34;15.40;99.90
5743;DHT22;2896;53.500;10.020;2023-07-08T00:49:13;15.30;99.90
5743;DHT22;2896;53.500;10.020;2023-07-08T00:51:41;15.20;99.90
5743;DHT22;2896;53.500;10.020;2023-07-08T00:54:10;15.20;99.90
5743;DHT22;2896;53.500;10.020;2023-07-08T00:56:40;15.10;99.90
5743;DHT22;2896;53.500;10.020;2023-07-08T00:59:13;15.00;99.90
5743;DHT22;2896;53.500;10.020;2023-07-08T01:01:43;14.90;99.90
5743;DHT22;2896;53.500;10.020;2023-07-08T01:04:12;14.90;99.90
5743;DHT22;2896;53.500;10.020;2023-07-08T01:06:43;14.80;99.90
5743;DHT22;2896;53.500;10.020;2023-07-08T01:09:12;14.80;99.90
5743;DHT22;2896;53.500;10.020;2023-07-08T01:11:40;14.70;99.90
5743;DHT22;2896;53.500;10.020;2023-07-08T01:14:11;14.70;99.90
5743;DHT22;2896;53.500;10.020;2023-07-08T01:16:39;14.60;99.90
5743;DHT22;2896;53.500;10.020;2023-07-08T01:19:08;14.60;1.00
5743;DHT22;2896;53.500;10.020;2023-07-08T01:21:44;14.50;1.00
5743;DHT22;2896;53.500;10.020;2023-07-08T01:24:11;14.50;1.00
5743;DHT22;2896;53.500;10.020;2023-07-08T01:26:42;14.40;1.00
5743;DHT22;2896;53.500;10.020;2023-07-08T01:29:10;14.40;1.00
5743;DHT22;2896;53.500;10.020;2023-07-08T01:31:37;14.30;1.00
5743;DHT22;2896;53.500;10.020;2023-07-08T01:34:04;14.30;1.00
5743;DHT22;2896;53.500;10.020;2023-07-08T01:36:39;14.20;1.00
5743;DHT22;2896;53.500;10.020;2023-07-08T01:39:12;14.10;1.00
5743;DHT22;2896;53.500;10.020;2023-07-08T01:41:39;14.10;1.00
5743;DHT22;2896;53.500;10.020;2023-07-08T01:44:22;14.00;1.00
5743;DHT22;2896;53.500;10.020;2023-07-08T01:46:50;14.00;1.00
5743;DHT22;2896;53.500;10.020;2023-07-08T01:49:19;14.00;1.00
5743;DHT22;2896;53.500;10.020;2023-07-08T01:51:46;13.90;1.00
5743;DHT22;2896;53.500;10.020;2023-07-08T01:54:15;13.80;1.00
5743;DHT22;2896;53.500;10.020;2023-07-08T01:56:41;13.80;1.00
5743;DHT22;2896;53.500;10.020;2023-07-08T01:59:08;13.70;1.00
5743;DHT22;2896;53.500;10.020;2023-07-08T02:01:34;13.70;1.00
5743;DHT22;2896;53.500;10.020;2023-07-08T02:04:01;13.70;1.00
5743;DHT22;2896;53.500;10.020;2023-07-08T02:06:28;13.70;1.00
5743;DHT22;2896;53.500;10.020;2023-07-08T02:08:54;13.60;1.00
5743;DHT22;2896;53.500;10.020;2023-07-08T02:11:25;13.60;1.00
5743;DHT22;2896;53.500;10.020;2023-07-08T02:13:52;13.60;1.00
5743;DHT22;2896;53.500;10.020;2023-07-08T02:16:18;13.50;1.00
5743;DHT22;2896;53.500;10.020;2023-07-08T02:18:45;13.50;1.00
5743;DHT22;2896;53.500;10.020;2023-07-08T02:21:12;13.40;1.00
5743;DHT22;2896;53.500;10.020;2023-07-08T02:23:39;13.40;1.00
5743;DHT22;2896;53.500;10.020;2023-07-08T02:26:05;13.40;1.00
5743;DHT22;2896;53.500;10.020;2023-07-08T02:28:33;13.40;1.00
5743;DHT22;2896;53.500;10.020;2023-07-08T02:31:02;13.30;1.00
5743;DHT22;2896;53.500;10.020;2023-07-08T02:33:28;13.30;1.00
5743;DHT22;2896;53.500;10.020;2023-07-08T02:35:58;13.40;1.00
5743;DHT22;2896;53.500;10.020;2023-07-08T02:38:25;13.20;1.00
5743;DHT22;2896;53.500;10.020;2023-07-08T02:40:52;13.20;1.00
5743;DHT22;2896;53.500;10.020;2023-07-08T02:43:18;13.20;1.00
5743;DHT22;2896;53.500;10.020;2023-07-08T02:45:49;13.20;1.00
5743;DHT22;2896;53.500;10.020;2023-07-08T02:48:15;13.20;1.00
5743;DHT22;2896;53.500;10.020;2023-07-08T02:50:42;13.10;1.00
5743;DHT22;2896;53.500;10.020;2023-07-08T02:53:08;13.10;1.00
5743;DHT22;2896;53.500;10.020;2023-07-08T02:55:35;13.10;1.00
5743;DHT22;2896;53.500;10.020;2023-07-08T02:58:02;13.00;1.00
5743;DHT22;2896;53.500;10.020;2023-07-08T03:00:28;13.10;1.00
5743;DHT22;2896;53.500;10.020;2023-07-08T03:02:56;13.00;1.00
5743;DHT22;2896;53.500;10.020;2023-07-08T03:05:23;13.00;1.00
5743;DHT22;2896;53.500;10.020;2023-07-08T03:07:50;13.00;1.00
5743;DHT22;2896;53.500;10.020;2023-07-08T03:10:16;13.00;1.00
5743;DHT22;2896;53.500;10.020;2023-07-08T03:12:43;12.90;18.60
5743;DHT22;2896;53.500;10.020;2023-07-08T03:15:10;12.90;14.10
5743;DHT22;2896;53.500;10.020;2023-07-08T03:17:36;12.90;12.00
5743;DHT22;2896;53.500;10.020;2023-07-08T03:20:05;13.00;9.90
5743;DHT22;2896;53.500;10.020;2023-07-08T03:22:32;13.00;12.90
5743;DHT22;2896;53.500;10.020;2023-07-08T03:24:59;12.90;6.70
5743;DHT22;2896;53.500;10.020;2023-07-08T03:27:25;12.90;36.30
5743;DHT22;2896;53.500;10.020;2023-07-08T03:29:52;13.00;35.00
5743;DHT22;2896;53.500;10.020;2023-07-08T03:32:18;13.00;59.00
5743;DHT22;2896;53.500;10.020;2023-07-08T03:34:45;13.00;86.80
5743;DHT22;2896;53.500;10.020;2023-07-08T03:37:13;12.90;91.70
5743;DHT22;2896;53.500;10.020;2023-07-08T03:39:40;13.00;93.30
5743;DHT22;2896;53.500;10.020;2023-07-08T03:42:07;13.00;99.90
5743;DHT22;2896;53.500;10.020;2023-07-08T03:44:33;13.00;99.90
5743;DHT22;2896;53.500;10.020;2023-07-08T03:47:00;13.00;99.90
5743;DHT22;2896;53.500;10.020;2023-07-08T03:49:27;13.10;99.90
5743;DHT22;2896;53.500;10.020;2023-07-08T03:51:54;13.20;99.90
5743;DHT22;2896;53.500;10.020;2023-07-08T03:54:24;13.20;99.90
5743;DHT22;2896;53.500;10.020;2023-07-08T03:56:51;13.30;99.90
5743;DHT22;2896;53.500;10.020;2023-07-08T03:59:18;13.30;99.90
5743;DHT22;2896;53.500;10.020;2023-07-08T04:01:44;13.40;99.90
5743;DHT22;2896;53.500;10.020;2023-07-08T04:04:13;13.60;99.90
5743;DHT22;2896;53.500;10.020;2023-07-08T04:06:40;13.80;99.90
5743;DHT22;2896;53.500;10.020;2023-07-08T04:09:07;14.00;99.90
5743;DHT22;2896;53.500;10.020;2023-07-08T04:11:36;14.00;41.80
5743;DHT22;2896;53.500;10.020;2023-07-08T04:14:02;14.00;7.20
5743;DHT22;2896;53.500;10.020;2023-07-08T04:16:35;14.10;1.00
5743;DHT22;2896;53.500;10.020;2023-07-08T04:19:07;14.10;14.10
5743;DHT22;2896;53.500;10.020;2023-07-08T04:21:39;14.20;1.00
5743;DHT22;2896;53.500;10.020;2023-07-08T04:24:08;14.30;1.00
5743;DHT22;2896;53.500;10.020;2023-07-08T04:26:36;14.40;1.00
5743;DHT22;2896;53.500;10.020;2023-07-08T04:29:06;14.50;1.00
5743;DHT22;2896;53.500;10.020;2023-07-08T04:31:32;14.60;1.00
5743;DHT22;2896;53.500;10.020;2023-07-08T04:33:59;14.60;1.00
5743;DHT22;2896;53.500;10.020;2023-07-08T04:36:26;14.70;1.00
5743;DHT22;2896;53.500;10.020;2023-07-08T04:38:52;14.70;1.00
5743;DHT22;2896;53.500;10.020;2023-07-08T04:41:19;14.90;1.00
5743;DHT22;2896;53.500;10.020;2023-07-08T04:43:47;15.60;1.00
5743;DHT22;2896;53.500;10.020;2023-07-08T04:46:18;15.00;1.00
5743;DHT22;2896;53.500;10.020;2023-07-08T04:48:45;15.00;1.00
5743;DHT22;2896;53.500;10.020;2023-07-08T04:51:13;15.00;1.00
5743;DHT22;2896;53.500;10.020;2023-07-08T04:53:40;15.10;1.00
5743;DHT22;2896;53.500;10.020;2023-07-08T04:56:07;15.10;1.00
5743;DHT22;2896;53.500;10.020;2023-07-08T04:58:34;15.20;1.00
5743;DHT22;2896;53.500;10.020;2023-07-08T05:01:02;15.30;1.00
5743;DHT22;2896;53.500;10.020;2023-07-08T05:03:28;15.40;1.00
5743;DHT22;2896;53.500;10.020;2023-07-08T05:05:55;15.70;1.00
5743;DHT22;2896;53.500;10.020;2023-07-08T05:08:22;15.90;99.90
5743;DHT22;2896;53.500;10.020;2023-07-08T05:10:48;16.00;1.00
5743;DHT22;2896;53.500;10.020;2023-07-08T05:13:15;16.00;99.90
5743;DHT22;2896;53.500;10.020;2023-07-08T05:15:41;16.00;1.00
5743;DHT22;2896;53.500;10.020;2023-07-08T05:18:09;16.10;1.00
5743;DHT22;2896;53.500;10.020;2023-07-08T05:20:36;16.20;1.00
5743;DHT22;2896;53.500;10.020;2023-07-08T05:23:03;16.20;1.00
5743;DHT22;2896;53.500;10.020;2023-07-08T05:25:31;16.30;1.00
5743;DHT22;2896;53.500;10.020;2023-07-08T05:27:58;16.30;1.00
5743;DHT22;2896;53.500;10.020;2023-07-08T05:30:25;16.50;99.90
5743;DHT22;2896;53.500;10.020;2023-07-08T05:32:53;16.60;99.90
5743;DHT22;2896;53.500;10.020;2023-07-08T05:35:21;16.70;99.90
5743;DHT22;2896;53.500;10.020;2023-07-08T05:37:49;16.70;99.90
5743;DHT22;2896;53.500;10.020;2023-07-08T05:40:16;16.80;99.90
5743;DHT22;2896;53.500;10.020;2023-07-08T05:42:43;17.00;99.90
5743;DHT22;2896;53.500;10.020;2023-07-08T05:45:10;17.20;99.90
5743;DHT22;2896;53.500;10.020;2023-07-08T05:47:36;17.30;99.90
5743;DHT22;2896;53.500;10.020;2023-07-08T05:50:04;17.50;99.90
5743;DHT22;2896;53.500;10.020;2023-07-08T05:52:32;17.60;99.90
5743;DHT22;2896;53.500;10.020;2023-07-08T05:54:58;17.70;99.90
5743;DHT22;2896;53.500;10.020;2023-07-08T05:57:25;17.80;99.90
5743;DHT22;2896;53.500;10.020;2023-07-08T05:59:52;17.90;99.90
5743;DHT22;2896;53.500;10.020;2023-07-08T06:02:18;18.10;99.90
5743;DHT22;2896;53.500;10.020;2023-07-08T06:04:48;18.30;99.90
5743;DHT22;2896;53.500;10.020;2023-07-08T06:07:15;18.50;99.90
5743;DHT22;2896;53.500;10.020;2023-07-08T06:09:43;18.70;99.90
5743;DHT22;2896;53.500;10.020;2023-07-08T06:12:10;18.80;99.90
5743;DHT22;2896;53.500;10.020;2023-07-08T06:14:37;18.90;99.90
5743;DHT22;2896;53.500;10.020;2023-07-08T06:17:04;19.00;99.90
5743;DHT22;2896;53.500;10.020;2023-07-08T06:19:32;19.00;99.90
5743;DHT22;2896;53.500;10.020;2023-07-08T06:21:58;18.10;99.90
5743;DHT22;2896;53.500;10.020;2023-07-08T06:24:25;19.30;99.90
5743;DHT22;2896;53.500;10.020;2023-07-08T06:26:53;19.50;99.90
5743;DHT22;2896;53.500;10.020;2023-07-08T06:29:19;19.60;99.90
5743;DHT22;2896;53.500;10.020;2023-07-08T06:31:46;19.70;99.90
5743;DHT22;2896;53.500;10.020;2023-07-08T06:34:13;19.80;99.90
5743;DHT22;2896;53.500;10.020;2023-07-08T06:36:39;19.90;99.90
5743;DHT22;2896;53.500;10.020;2023-07-08T06:39:06;20.00;99.90
5743;DHT22;2896;53.500;10.020;2023-07-08T06:41:34;20.10;99.90
5743;DHT22;2896;53.500;10.020;2023-07-08T06:44:02;20.30;99.90
5743;DHT22;2896;53.500;10.020;2023-07-08T06:46:29;20.50;99.90
5743;DHT22;2896;53.500;10.020;2023-07-08T06:48:55;20.60;99.90
5743;DHT22;2896;53.500;10.020;2023-07-08T06:51:22;20.70;99.90
5743;DHT22;2896;53.500;10.020;2023-07-08T06:53:48;20.70;99.90
5743;DHT22;2896;53.500;10.020;2023-07-08T06:56:15;20.90;99.90
5743;DHT22;2896;53.500;10.020;2023-07-08T06:58:42;21.10;99.90
5743;DHT22;2896;53.500;10.020;2023-07-08T07:01:10;21.20;99.90
5743;DHT22;2896;53.500;10.020;2023-07-08T07:03:37;21.30;99.90
5743;DHT22;2896;53.500;10.020;2023-07-08T07:06:04;21.40;99.90
5743;DHT22;2896;53.500;10.020;2023-07-08T07:08:30;21.50;99.90
5743;DHT22;2896;53.500;10.020;2023-07-08T07:10:57;21.20;99.90
5743;DHT22;2896;53.500;10.020;2023-07-08T07:13:24;21.80;99.90
5743;DHT22;2896;53.500;10.020;2023-07-08T07:15:50;21.90;99.90
5743;DHT22;2896;53.500;10.020;2023-07-08T07:18:18;22.10;99.90
5743;DHT22;2896;53.500;10.020;2023-07-08T07:20:49;22.20;99.90
5743;DHT22;2896;53.500;10.020;2023-07-08T07:23:16;22.30;99.90
5743;DHT22;2896;53.500;10.020;2023-07-08T07:25:43;22.30;99.90
5743;DHT22;2896;53.500;10.020;2023-07-08T07:28:09;22.40;99.90
5743;DHT22;2896;53.500;10.020;2023-07-08T07:30:36;22.40;99.90
5743;DHT22;2896;53.500;10.020;2023-07-08T07:33:03;22.50;99.90
5743;DHT22;2896;53.500;10.020;2023-07-08T07:35:30;22.70;99.90
5743;DHT22;2896;53.500;10.020;2023-07-08T07:37:57;22.80;99.90
5743;DHT22;2896;53.500;10.020;2023-07-08T07:40:24;22.90;99.90
5743;DHT22;2896;53.500;10.020;2023-07-08T07:42:50;23.90;99.90
5743;DHT22;2896;53.500;10.020;2023-07-08T07:45:17;23.20;99.90
5743;DHT22;2896;53.500;10.020;2023-07-08T07:47:45;23.30;99.90
5743;DHT22;2896;53.500;10.020;2023-07-08T07:50:11;23.50;99.90
5743;DHT22;2896;53.500;10.020;2023-07-08T07:52:40;23.60;99.90
5743;DHT22;2896;53.500;10.020;2023-07-08T07:55:07;23.70;99.90
5743;DHT22;2896;53.500;10.020;2023-07-08T07:57:34;23.70;99.90
5743;DHT22;2896;53.500;10.020;2023-07-08T08:00:01;23.90;99.90
5743;DHT22;2896;53.500;10.020;2023-07-08T08:02:27;23.90;99.90
5743;DHT22;2896;53.500;10.020;2023-07-08T08:04:54;23.90;99.90
5743;DHT22;2896;53.500;10.020;2023-07-08T08:07:20;24.10;99.90
5743;DHT22;2896;53.500;10.020;2023-07-08T08:09:48;24.20;99.90
5743;DHT22;2896;53.500;10.020;2023-07-08T08:12:15;24.30;99.90
5743;DHT22;2896;53.500;10.020;2023-07-08T08:14:42;24.50;99.90
5743;DHT22;2896;53.500;10.020;2023-07-08T08:17:09;24.50;99.90
5743;DHT22;2896;53.500;10.020;2023-07-08T08:19:35;24.50;99.90
5743;DHT22;2896;53.500;10.020;2023-07-08T08:22:02;24.90;99.90
5743;DHT22;2896;53.500;10.020;2023-07-08T08:24:29;25.10;99.90
5743;DHT22;2896;53.500;10.020;2023-07-08T08:26:57;25.00;99.90
5743;DHT22;2896;53.500;10.020;2023-07-08T08:29:23;25.20;99.90
5743;DHT22;2896;53.500;10.020;2023-07-08T08:31:50;25.30;99.90
5743;DHT22;2896;53.500;10.020;2023-07-08T08:34:16;25.70;99.90
5743;DHT22;2896;53.500;10.020;2023-07-08T08:36:43;25.60;99.90
5743;DHT22;2896;53.500;10.020;2023-07-08T08:39:10;26.00;99.90
5743;DHT22;2896;53.500;10.020;2023-07-08T08:41:38;26.30;99.90
5743;DHT22;2896;53.500;10.020;2023-07-08T08:44:08;26.20;99.90
5743;DHT22;2896;53.500;10.020;2023-07-08T08:46:40;26.30;99.90
5743;DHT22;2896;53.500;10.020;2023-07-08T08:49:25;26.60;99.90
5743;DHT22;2896;53.500;10.020;2023-07-08T08:51:53;27.00;99.90
5743;DHT22;2896;53.500;10.020;2023-07-08T08:54:20;27.40;99.90
5743;DHT22;2896;53.500;10.020;2023-07-08T08:56:59;27.40;99.90
5743;DHT22;2896;53.500;10.020;2023-07-08T08:59:36;27.70;99.90
5743;DHT22;2896;53.500;10.020;2023-07-08T09:02:22;27.60;99.90
5743;DHT22;2896;53.500;10.020;2023-07-08T09:04:50;27.30;99.90
5743;DHT22;2896;53.500;10.020;2023-07-08T09:07:18;27.60;99.90
5743;DHT22;2896;53.500;10.020;2023-07-08T09:09:48;27.70;99.90
5743;DHT22;2896;53.500;10.020;2023-07-08T09:12:20;28.00;99.90
5743;DHT22;2896;53.500;10.020;2023-07-08T09:14:50;27.60;99.90
5743;DHT22;2896;53.500;10.020;2023-07-08T09:17:22;27.40;99.90
5743;DHT22;2896;53.500;10.020;2023-07-08T09:19:54;27.40;99.90
5743;DHT22;2896;53.500;10.020;2023-07-08T09:22:29;28.20;99.90
5743;DHT22;2896;53.500;10.020;2023-07-08T09:25:03;28.30;99.90
5743;DHT22;2896;53.500;10.020;2023-07-08T09:27:30;28.70;99.90
5743;DHT22;2896;53.500;10.020;2023-07-08T09:29:58;28.80;99.90
5743;DHT22;2896;53.500;10.020;2023-07-08T09:32:27;28.60;99.90
5743;DHT22;2896;53.500;10.020;2023-07-08T09:34:56;29.20;99.90
5743;DHT22;2896;53.500;10.020;2023-07-08T09:37:31;29.20;99.90
5743;DHT22;2896;53.500;10.020;2023-07-08T09:39:59;29.40;99.90
5743;DHT22;2896;53.500;10.020;2023-07-08T09:42:29;29.80;99.90
5743;DHT22;2896;53.500;10.020;2023-07-08T09:44:59;30.10;99.90
5743;DHT22;2896;53.500;10.020;2023-07-08T09:47:28;30.00;99.90
5743;DHT22;2896;53.500;10.020;2023-07-08T09:49:58;29.70;99.90
5743;DHT22;2896;53.500;10.020;2023-07-08T09:52:25;29.90;99.90
5743;DHT22;2896;53.500;10.020;2023-07-08T09:54:52;30.20;99.90
5743;DHT22;2896;53.500;10.020;2023-07-08T09:57:26;30.50;99.90
5743;DHT22;2896;53.500;10.020;2023-07-08T09:59:56;30.20;99.90
5743;DHT22;2896;53.500;10.020;2023-07-08T10:02:32;30.60;99.90
5743;DHT22;2896;53.500;10.020;2023-07-08T10:05:01;30.90;99.90
5743;DHT22;2896;53.500;10.020;2023-07-08T10:07:31;30.70;99.90
5743;DHT22;2896;53.500;10.020;2023-07-08T10:10:01;30.50;99.90
5743;DHT22;2896;53.500;10.020;2023-07-08T10:12:30;30.10;99.90
5743;DHT22;2896;53.500;10.020;2023-07-08T10:15:00;30.80;99.90
5743;DHT22;2896;53.500;10.020;2023-07-08T10:17:29;30.90;99.90
5743;DHT22;2896;53.500;10.020;2023-07-08T10:19:56;30.90;99.90
5743;DHT22;2896;53.500;10.020;2023-07-08T10:22:30;30.30;99.90
5743;DHT22;2896;53.500;10.020;2023-07-08T10:25:13;30.20;99.90
5743;DHT22;2896;53.500;10.020;2023-07-08T10:27:47;30.80;99.90
5743;DHT22;2896;53.500;10.020;2023-07-08T10:30:20;31.10;99.90
5743;DHT22;2896;53.500;10.020;2023-07-08T10:33:08;31.30;99.90
5743;DHT22;2896;53.500;10.020;2023-07-08T10:35:44;30.80;99.90
5743;DHT22;2896;53.500;10.020;2023-07-08T10:38:25;30.50;99.90
5743;DHT22;2896;53.500;10.020;2023-07-08T10:40:58;30.90;99.90
5743;DHT22;2896;53.500;10.020;2023-07-08T10:43:40;31.30;99.90
5743;DHT22;2896;53.500;10.020;2023-07-08T10:46:21;31.90;99.90
5743;DHT22;2896;53.500;10.020;2023-07-08T10:49:05;32.10;99.90
5743;DHT22;2896;53.500;10.020;2023-07-08T10:51:38;32.40;99.90
5743;DHT22;2896;53.500;10.020;2023-07-08T10:54:21;31.70;99.90
5743;DHT22;2896;53.500;10.020;2023-07-08T10:57:00;30.80;99.90
5743;DHT22;2896;53.500;10.020;2023-07-08T10:59:41;31.50;99.90
5743;DHT22;2896;53.500;10.020;2023-07-08T11:02:28;32.30;99.90
5743;DHT22;2896;53.500;10.020;2023-07-08T11:05:07;32.80;99.90
5743;DHT22;2896;53.500;10.020;2023-07-08T11:07:41;32.90;99.90
5743;DHT22;2896;53.500;10.020;2023-07-08T11:10:14;32.60;99.90
5743;DHT22;2896;53.500;10.020;2023-07-08T11:12:45;32.90;99.90
5743;DHT22;2896;53.500;10.020;2023-07-08T11:15:17;31.90;99.90
5743;DHT22;2896;53.500;10.020;2023-07-08T11:17:49;31.30;99.90
5743;DHT22;2896;53.500;10.020;2023-07-08T11:20:22;31.00;99.90
5743;DHT22;2896;53.500;10.020;2023-07-08T11:23:01;32.40;99.90
5743;DHT22;2896;53.500;10.020;2023-07-08T11:25:31;32.80;99.90
5743;DHT22;2896;53.500;10.020;2023-07-08T11:28:02;33.40;99.90
5743;DHT22;2896;53.500;10.020;2023-07-08T11:30:30;33.90;99.90
5743;DHT22;2896;53.500;10.020;2023-07-08T11:33:02;33.70;99.90
5743;DHT22;2896;53.500;10.020;2023-07-08T11:35:37;33.10;99.90
5743;DHT22;2896;53.500;10.020;2023-07-08T11:38:05;33.10;99.90
5743;DHT22;2896;53.500;10.020;2023-07-08T11:40:48;33.90;99.90
5743;DHT22;2896;53.500;10.020;2023-07-08T11:43:16;34.30;99.90
5743;DHT22;2896;53.500;10.020;2023-07-08T11:45:43;34.50;99.90
5743;DHT22;2896;53.500;10.020;2023-07-08T11:48:13;34.80;99.90
5743;DHT22;2896;53.500;10.020;2023-07-08T11:50:43;34.80;99.90
5743;DHT22;2896;53.500;10.020;2023-07-08T11:53:13;34.80;99.90
5743;DHT22;2896;53.500;10.020;2023-07-08T11:55:44;35.00;99.90
5743;DHT22;2896;53.500;10.020;2023-07-08T11:58:21;34.80;99.90
5743;DHT22;2896;53.500;10.020;2023-07-08T12:00:54;34.50;99.90
5743;DHT22;2896;53.500;10.020;2023-07-08T12:03:31;33.90;99.90
5743;DHT22;2896;53.500;10.020;2023-07-08T12:06:00;34.50;99.90
5743;DHT22;2896;53.500;10.020;2023-07-08T12:08:34;35.10;99.90
5743;DHT22;2896;53.500;10.020;2023-07-08T12:11:03;35.30;99.90
5743;DHT22;2896;53.500;10.020;2023-07-08T12:13:30;35.20;99.90
5743;DHT22;2896;53.500;10.020;2023-07-08T12:15:57;35.50;99.90
5743;DHT22;2896;53.500;10.020;2023-07-08T12:18:27;35.20;99.90
5743;DHT22;2896;53.500;10.020;2023-07-08T12:20:56;35.30;99.90
5743;DHT22;2896;53.500;10.020;2023-07-08T12:23:26;35.20;99.90
5743;DHT22;2896;53.500;10.020;2023-07-08T12:25:54;35.30;99.90
5743;DHT22;2896;53.500;10.020;2023-07-08T12:28:22;35.80;99.90
5743;DHT22;2896;53.500;10.020;2023-07-08T12:30:50;35.50;99.90
5743;DHT22;2896;53.500;10.020;2023-07-08T12:33:19;34.80;99.90
5743;DHT22;2896;53.500;10.020;2023-07-08T12:35:48;34.80;99.90
5743;DHT22;2896;53.500;10.020;2023-07-08T12:38:20;34.10;99.90
5743;DHT22;2896;53.500;10.020;2023-07-08T12:40:50;33.80;99.90
5743;DHT22;2896;53.500;10.020;2023-07-08T12:43:17;33.90;99.90
5743;DHT22;2896;53.500;10.020;2023-07-08T12:45:44;34.80;99.90
5743;DHT22;2896;53.500;10.020;2023-07-08T12:48:11;35.20;99.90
5743;DHT22;2896;53.500;10.020;2023-07-08T12:50:38;35.60;99.90
5743;DHT22;2896;53.500;10.020;2023-07-08T12:53:05;35.80;99.90
5743;DHT22;2896;53.500;10.020;2023-07-08T12:55:35;36.00;99.90
5743;DHT22;2896;53.500;10.020;2023-07-08T12:58:05;35.60;99.90
5743;DHT22;2896;53.500;10.020;2023-07-08T13:00:36;34.40;99.90
5743;DHT22;2896;53.500;10.020;2023-07-08T13:03:06;34.60;99.90
5743;DHT22;2896;53.500;10.020;2023-07-08T13:05:33;34.70;99.90
5743;DHT22;2896;53.500;10.020;2023-07-08T13:08:00;35.00;99.90
5743;DHT22;2896;53.500;10.020;2023-07-08T13:10:29;34.50;99.90
5743;DHT22;2896;53.500;10.020;2023-07-08T13:12:58;34.20;99.90
5743;DHT22;2896;53.500;10.020;2023-07-08T13:15:29;34.80;99.90
5743;DHT22;2896;53.500;10.020;2023-07-08T13:17:58;34.30;99.90
5743;DHT22;2896;53.500;10.020;2023-07-08T13:20:25;34.10;99.90
5743;DHT22;2896;53.500;10.020;2023-07-08T13:22:55;35.20;99.90
5743;DHT22;2896;53.500;10.020;2023-07-08T13:25:27;35.80;99.90
5743;DHT22;2896;53.500;10.020;2023-07-08T13:27:56;35.80;99.90
5743;DHT22;2896;53.500;10.020;2023-07-08T13:30:25;36.10;99.90
5743;DHT22;2896;53.500;10.020;2023-07-08T13:32:55;35.50;99.90
5743;DHT22;2896;53.500;10.020;2023-07-08T13:35:24;35.20;99.90
5743;DHT22;2896;53.500;10.020;2023-07-08T13:37:52;35.80;99.90
5743;DHT22;2896;53.500;10.020;2023-07-08T13:40:19;36.40;99.90
5743;DHT22;2896;53.500;10.020;2023-07-08T13:42:50;36.20;99.90
5743;DHT22;2896;53.500;10.020;2023-07-08T13:45:23;36.40;99.90
5743;DHT22;2896;53.500;10.020;2023-07-08T13:48:00;36.60;99.90
5743;DHT22;2896;53.500;10.020;2023-07-08T13:50:30;36.60;99.90
5743;DHT22;2896;53.500;10.020;2023-07-08T13:52:58;36.20;99.90
5743;DHT22;2896;53.500;10.020;2023-07-08T13:55:25;36.30;99.90
5743;DHT22;2896;53.500;10.020;2023-07-08T13:57:57;36.90;99.90
5743;DHT22;2896;53.500;10.020;2023-07-08T14:00:24;37.10;99.90
5743;DHT22;2896;53.500;10.020;2023-07-08T14:02:51;37.10;99.90
5743;DHT22;2896;53.500;10.020;2023-07-08T14:05:19;36.30;99.90
5743;DHT22;2896;53.500;10.020;2023-07-08T14:07:47;36.10;99.90
5743;DHT22;2896;53.500;10.020;2023-07-08T14:10:15;36.30;99.90
5743;DHT22;2896;53.500;10.020;2023-07-08T14:12:42;36.50;99.90
5743;DHT22;2896;53.500;10.020;2023-07-08T14:15:09;36.80;99.90
5743;DHT22;2896;53.500;10.020;2023-07-08T14:17:37;36.80;99.90
5743;DHT22;2896;53.500;10.020;2023-07-08T14:20:09;37.10;99.90
5743;DHT22;2896;53.500;10.020;2023-07-08T14:22:38;37.20;99.90
5743;DHT22;2896;53.500;10.020;2023-07-08T14:25:08;37.00;99.90
5743;DHT22;2896;53.500;10.020;2023-07-08T14:27:35;37.20;99.90
5743;DHT22;2896;53.500;10.020;2023-07-08T14:30:02;36.30;99.90
5743;DHT22;2896;53.500;10.020;2023-07-08T14:32:30;36.40;99.90
5743;DHT22;2896;53.500;10.020;2023-07-08T14:35:15;36.50;99.90
5743;DHT22;2896;53.500;10.020;2023-07-08T14:37:44;36.40;99.90
5743;DHT22;2896;53.500;10.020;2023-07-08T14:40:23;36.80;99.90
5743;DHT22;2896;53.500;10.020;2023-07-08T14:42:52;36.10;99.90
5743;DHT22;2896;53.500;10.020;2023-07-08T14:45:20;36.70;99.90
5743;DHT22;2896;53.500;10.020;2023-07-08T14:47:47;36.80;99.90
5743;DHT22;2896;53.500;10.020;2023-07-08T14:50:15;36.70;99.90
5743;DHT22;2896;53.500;10.020;2023-07-08T14:52:43;37.10;99.90
5743;DHT22;2896;53.500;10.020;2023-07-08T14:55:10;37.20;99.90
5743;DHT22;2896;53.500;10.020;2023-07-08T14:57:42;37.10;99.90
5743;DHT22;2896;53.500;10.020;2023-07-08T15:00:11;37.10;99.90
5743;DHT22;2896;53.500;10.020;2023-07-08T15:02:40;35.50;99.90
5743;DHT22;2896;53.500;10.020;2023-07-08T15:05:13;35.70;99.90
5743;DHT22;2896;53.500;10.020;2023-07-08T15:07:40;36.20;99.90
5743;DHT22;2896;53.500;10.020;2023-07-08T15:10:09;36.30;99.90
5743;DHT22;2896;53.500;10.020;2023-07-08T15:12:36;35.90;99.90
5743;DHT22;2896;53.500;10.020;2023-07-08T15:15:03;35.30;99.90
5743;DHT22;2896;53.500;10.020;2023-07-08T15:17:30;35.60;99.90
5743;DHT22;2896;53.500;10.020;2023-07-08T15:19:57;35.40;99.90
5743;DHT22;2896;53.500;10.020;2023-07-08T15:22:24;35.20;99.90
5743;DHT22;2896;53.500;10.020;2023-07-08T15:24:50;34.30;99.90
5743;DHT22;2896;53.500;10.020;2023-07-08T15:27:20;35.20;99.90
5743;DHT22;2896;53.500;10.020;2023-07-08T15:29:48;34.70;99.90
5743;DHT22;2896;53.500;10.020;2023-07-08T15:32:15;34.10;99.90
5743;DHT22;2896;53.500;10.020;2023-07-08T15:34:45;34.10;99.90
5743;DHT22;2896;53.500;10.020;2023-07-08T15:37:11;34.70;99.90
5743;DHT22;2896;53.500;10.020;2023-07-08T15:39:38;34.80;99.90
5743;DHT22;2896;53.500;10.020;2023-07-08T15:42:09;35.10;99.90
5743;DHT22;2896;53.500;10.020;2023-07-08T15:44:38;35.00;99.90
5743;DHT22;2896;53.500;10.020;2023-07-08T15:47:07;34.70;99.90
5743;DHT22;2896;53.500;10.020;2023-07-08T15:49:37;34.80;99.90
5743;DHT22;2896;53.500;10.020;2023-07-08T15:52:05;34.50;99.90
5743;DHT22;2896;53.500;10.020;2023-07-08T15:54:31;34.90;99.90
5743;DHT22;2896;53.500;10.020;2023-07-08T15:56:58;34.40;99.90
5743;DHT22;2896;53.500;10.020;2023-07-08T15:59:27;34.50;99.90
5743;DHT22;2896;53.500;10.020;2023-07-08T16:01:58;34.80;99.90